Capitol Logistics 263


KIAD
Washington Dulles International Airport
Dulles, Virginia, US
KBOS
Logan International Airport
Boston, Massachusetts, US

Route Details

Aircraft Information
Primary: Boeing 767-300BDSF
Backup: Boeing 757-200SF
Route Data
Distance: 359nm
Sched. Duration: 1h 19m
Avg. Duration: 1h 18m (-1m)
Times Flown: 12
Recm'd Route: JCOBY3 SWANN BROSS J42 RBV J222 JFK ROBUC3
Planned Altitude: 31,000ft
Origin Wx: KIAD 170752Z 21006KT 10SM OVC050 00/M05 A2972 RMK AO2 SLP065 T00001050
Dest. Wx: KBOS 170754Z 25021G28KT 10SM FEW095 02/M04 A2929 RMK AO2 PK WND 23029/0707 SLP917 T00221039
Notes:

Financial History
Total Freight: 1,013,054lbs
Average Load: 84,421lbs/flt
Fuel Used: 148,511lbs
Avg. Fuel Used: 12,376lbs/flt
Fuel Expense: $193,184
Avg. Fuel Expense: $16,099
Avg. Fuel Cost: $1.30/lbs
Total Gross Income: $1,348,750
Pilot Pay: $2,368
Total Expenses: $146,289
Total Revenue: $1,005,856
Average Revenue: $112,395.82